sensor_id;sensor_type;location;lat;lon;timestamp;pressure;altitude;pressure_sealevel;temperature;humidity
55077;BME280;40971;44.702;11.030;2023-09-19T00:04:43;101111.06;;;18.99;95.85
55077;BME280;40971;44.702;11.030;2023-09-19T00:14:44;101117.66;;;18.77;97.08
55077;BME280;40971;44.702;11.030;2023-09-19T00:24:45;101116.44;;;18.60;98.14
55077;BME280;40971;44.702;11.030;2023-09-19T00:34:47;101104.38;;;18.64;98.68
55077;BME280;40971;44.702;11.030;2023-09-19T00:44:49;101115.59;;;18.79;98.46
55077;BME280;40971;44.702;11.030;2023-09-19T00:54:52;101119.31;;;18.72;97.48
55077;BME280;40971;44.702;11.030;2023-09-19T01:04:54;101120.09;;;18.46;98.07
55077;BME280;40971;44.702;11.030;2023-09-19T01:15:05;101117.84;;;18.43;99.48
55077;BME280;40971;44.702;11.030;2023-09-19T01:35:28;101115.19;;;18.36;99.78
55077;BME280;40971;44.702;11.030;2023-09-19T01:55:48;101104.13;;;18.20;100.00
55077;BME280;40971;44.702;11.030;2023-09-19T02:05:52;101104.50;;;17.97;100.00
55077;BME280;40971;44.702;11.030;2023-09-19T02:15:55;101103.94;;;18.28;100.00
55077;BME280;40971;44.702;11.030;2023-09-19T02:25:57;101108.22;;;18.29;100.00
55077;BME280;40971;44.702;11.030;2023-09-19T02:35:59;101099.81;;;18.06;98.71
55077;BME280;40971;44.702;11.030;2023-09-19T02:46:02;101112.47;;;18.03;99.44
55077;BME280;40971;44.702;11.030;2023-09-19T02:56:04;101104.06;;;17.93;100.00
55077;BME280;40971;44.702;11.030;2023-09-19T03:06:06;101105.91;;;17.93;100.00
55077;BME280;40971;44.702;11.030;2023-09-19T03:16:10;101097.16;;;18.06;100.00
55077;BME280;40971;44.702;11.030;2023-09-19T03:26:12;101104.28;;;17.92;100.00
55077;BME280;40971;44.702;11.030;2023-09-19T03:36:14;101112.19;;;17.66;99.17
55077;BME280;40971;44.702;11.030;2023-09-19T03:46:16;101107.22;;;17.56;100.00
55077;BME280;40971;44.702;11.030;2023-09-19T03:56:17;101110.41;;;17.45;100.00
55077;BME280;40971;44.702;11.030;2023-09-19T04:06:19;101111.38;;;17.31;100.00
55077;BME280;40971;44.702;11.030;2023-09-19T04:16:21;101117.19;;;17.07;100.00
55077;BME280;40971;44.702;11.030;2023-09-19T04:26:22;101113.53;;;17.08;100.00
55077;BME280;40971;44.702;11.030;2023-09-19T04:36:24;101119.91;;;17.20;100.00
55077;BME280;40971;44.702;11.030;2023-09-19T04:46:26;101120.03;;;17.05;100.00
55077;BME280;40971;44.702;11.030;2023-09-19T04:56:27;101114.69;;;16.99;100.00
55077;BME280;40971;44.702;11.030;2023-09-19T05:06:30;101128.69;;;17.14;100.00
55077;BME280;40971;44.702;11.030;2023-09-19T05:16:32;101134.63;;;17.16;100.00
55077;BME280;40971;44.702;11.030;2023-09-19T05:26:35;101146.91;;;17.23;100.00
55077;BME280;40971;44.702;11.030;2023-09-19T05:36:37;101164.13;;;17.27;100.00
55077;BME280;40971;44.702;11.030;2023-09-19T05:46:40;101177.44;;;17.68;100.00
55077;BME280;40971;44.702;11.030;2023-09-19T05:56:42;101181.25;;;18.00;100.00
55077;BME280;40971;44.702;11.030;2023-09-19T06:06:45;101192.19;;;18.44;100.00
55077;BME280;40971;44.702;11.030;2023-09-19T06:16:51;101195.75;;;18.97;100.00
55077;BME280;40971;44.702;11.030;2023-09-19T06:26:55;101231.16;;;19.57;100.00
55077;BME280;40971;44.702;11.030;2023-09-19T06:36:58;101247.97;;;19.57;99.76
55077;BME280;40971;44.702;11.030;2023-09-19T06:47:01;101259.75;;;20.01;98.92
55077;BME280;40971;44.702;11.030;2023-09-19T06:57:06;101270.78;;;20.86;94.29
55077;BME280;40971;44.702;11.030;2023-09-19T07:07:12;101272.44;;;21.98;87.28
55077;BME280;40971;44.702;11.030;2023-09-19T07:17:16;101265.59;;;22.80;83.47
55077;BME280;40971;44.702;11.030;2023-09-19T07:27:21;101275.78;;;23.70;79.18
55077;BME280;40971;44.702;11.030;2023-09-19T07:37:25;101285.31;;;24.41;74.95
55077;BME280;40971;44.702;11.030;2023-09-19T07:47:30;101293.84;;;24.95;74.76
55077;BME280;40971;44.702;11.030;2023-09-19T07:57:35;101295.31;;;25.90;70.81
55077;BME280;40971;44.702;11.030;2023-09-19T08:07:39;101291.09;;;26.43;67.63
55077;BME280;40971;44.702;11.030;2023-09-19T08:17:42;101287.94;;;27.04;65.70
55077;BME280;40971;44.702;11.030;2023-09-19T08:27:46;101292.81;;;27.86;64.46
55077;BME280;40971;44.702;11.030;2023-09-19T08:37:50;101283.72;;;28.12;62.26
55077;BME280;40971;44.702;11.030;2023-09-19T08:48:04;101288.63;;;28.15;62.73
55077;BME280;40971;44.702;11.030;2023-09-19T08:58:10;101276.78;;;28.47;60.54
55077;BME280;40971;44.702;11.030;2023-09-19T09:08:15;101281.94;;;28.48;61.70
55077;BME280;40971;44.702;11.030;2023-09-19T09:18:19;101284.91;;;27.33;61.45
55077;BME280;40971;44.702;11.030;2023-09-19T09:28:26;101280.22;;;27.60;61.86
55077;BME280;40971;44.702;11.030;2023-09-19T09:38:47;101269.41;;;27.55;60.62
55077;BME280;40971;44.702;11.030;2023-09-19T09:49:05;101271.91;;;27.66;60.97
55077;BME280;40971;44.702;11.030;2023-09-19T09:59:54;101268.50;;;27.96;59.48
55077;BME280;40971;44.702;11.030;2023-09-19T10:09:59;101269.38;;;27.50;60.23
55077;BME280;40971;44.702;11.030;2023-09-19T10:20:08;101261.22;;;27.45;61.12
55077;BME280;40971;44.702;11.030;2023-09-19T10:30:25;101262.63;;;27.52;60.65
55077;BME280;40971;44.702;11.030;2023-09-19T10:40:27;101257.13;;;27.89;60.23
55077;BME280;40971;44.702;11.030;2023-09-19T11:01:04;101253.09;;;27.92;57.51
55077;BME280;40971;44.702;11.030;2023-09-19T11:11:43;101241.59;;;28.37;56.74
55077;BME280;40971;44.702;11.030;2023-09-19T11:21:52;101225.38;;;28.26;57.49
55077;BME280;40971;44.702;11.030;2023-09-19T11:31:56;101239.53;;;28.89;53.49
55077;BME280;40971;44.702;11.030;2023-09-19T11:42:00;101225.56;;;29.61;53.44
55077;BME280;40971;44.702;11.030;2023-09-19T11:52:24;101230.22;;;29.51;52.51
55077;BME280;40971;44.702;11.030;2023-09-19T12:02:39;101217.03;;;29.93;51.44
55077;BME280;40971;44.702;11.030;2023-09-19T12:12:48;101209.00;;;29.68;52.75
55077;BME280;40971;44.702;11.030;2023-09-19T12:22:51;101199.09;;;30.46;50.32
55077;BME280;40971;44.702;11.030;2023-09-19T12:32:54;101193.25;;;30.96;46.84
55077;BME280;40971;44.702;11.030;2023-09-19T12:42:59;101172.59;;;30.67;48.65
55077;BME280;40971;44.702;11.030;2023-09-19T12:53:04;101172.13;;;31.17;47.89
55077;BME280;40971;44.702;11.030;2023-09-19T13:03:14;101161.91;;;31.94;43.68
55077;BME280;40971;44.702;11.030;2023-09-19T13:13:23;101157.03;;;31.06;45.88
55077;BME280;40971;44.702;11.030;2023-09-19T13:23:28;101150.03;;;31.24;44.76
55077;BME280;40971;44.702;11.030;2023-09-19T13:33:30;101165.28;;;31.43;43.77
55077;BME280;40971;44.702;11.030;2023-09-19T13:43:32;101160.22;;;32.35;42.78
55077;BME280;40971;44.702;11.030;2023-09-19T13:53:36;101155.22;;;33.02;39.24
55077;BME280;40971;44.702;11.030;2023-09-19T14:03:37;101154.63;;;31.89;43.27
55077;BME280;40971;44.702;11.030;2023-09-19T14:13:39;101148.88;;;31.53;41.64
55077;BME280;40971;44.702;11.030;2023-09-19T14:23:41;101144.25;;;31.91;44.38
55077;BME280;40971;44.702;11.030;2023-09-19T14:33:45;101141.28;;;31.50;43.93
55077;BME280;40971;44.702;11.030;2023-09-19T14:43:46;101142.41;;;31.26;43.15
55077;BME280;40971;44.702;11.030;2023-09-19T14:53:47;101134.38;;;30.87;44.86
55077;BME280;40971;44.702;11.030;2023-09-19T15:03:48;101135.03;;;30.11;46.55
55077;BME280;40971;44.702;11.030;2023-09-19T15:13:52;101127.53;;;30.66;47.12
55077;BME280;40971;44.702;11.030;2023-09-19T15:23:55;101143.34;;;30.58;44.70
55077;BME280;40971;44.702;11.030;2023-09-19T15:33:56;101141.91;;;30.37;45.36
55077;BME280;40971;44.702;11.030;2023-09-19T15:44:00;101143.63;;;30.23;45.01
55077;BME280;40971;44.702;11.030;2023-09-19T15:54:11;101144.72;;;30.22;45.23
55077;BME280;40971;44.702;11.030;2023-09-19T16:04:15;101151.34;;;30.45;46.15
55077;BME280;40971;44.702;11.030;2023-09-19T16:14:18;101143.91;;;29.78;51.81
55077;BME280;40971;44.702;11.030;2023-09-19T16:24:19;101151.09;;;29.49;50.15
55077;BME280;40971;44.702;11.030;2023-09-19T16:34:21;101156.69;;;28.63;53.32
55077;BME280;40971;44.702;11.030;2023-09-19T16:44:24;101159.66;;;28.36;56.77
55077;BME280;40971;44.702;11.030;2023-09-19T16:54:25;101172.84;;;28.02;60.19
55077;BME280;40971;44.702;11.030;2023-09-19T17:04:28;101174.19;;;27.38;65.21
55077;BME280;40971;44.702;11.030;2023-09-19T17:14:35;101169.72;;;26.75;67.83
55077;BME280;40971;44.702;11.030;2023-09-19T17:24:41;101173.16;;;26.07;68.88
55077;BME280;40971;44.702;11.030;2023-09-19T17:34:42;101165.78;;;25.32;73.77
55077;BME280;40971;44.702;11.030;2023-09-19T17:44:48;101173.91;;;24.99;73.43
55077;BME280;40971;44.702;11.030;2023-09-19T17:54:50;101202.38;;;24.95;71.60
55077;BME280;40971;44.702;11.030;2023-09-19T18:04:53;101213.47;;;24.81;76.72
55077;BME280;40971;44.702;11.030;2023-09-19T18:14:55;101224.53;;;24.85;75.93
55077;BME280;40971;44.702;11.030;2023-09-19T18:24:56;101238.09;;;24.45;77.12
55077;BME280;40971;44.702;11.030;2023-09-19T18:34:57;101247.38;;;24.54;76.91
55077;BME280;40971;44.702;11.030;2023-09-19T18:44:59;101253.53;;;24.66;74.82
55077;BME280;40971;44.702;11.030;2023-09-19T18:55:02;101257.84;;;24.67;69.75
55077;BME280;40971;44.702;11.030;2023-09-19T19:05:05;101273.53;;;24.42;71.46
55077;BME280;40971;44.702;11.030;2023-09-19T19:15:07;101269.53;;;24.16;73.13
55077;BME280;40971;44.702;11.030;2023-09-19T19:25:08;101274.56;;;24.13;72.50
55077;BME280;40971;44.702;11.030;2023-09-19T19:35:10;101281.69;;;24.47;67.08
55077;BME280;40971;44.702;11.030;2023-09-19T19:45:12;101284.84;;;24.44;64.49
55077;BME280;40971;44.702;11.030;2023-09-19T19:55:14;101288.47;;;24.10;61.03
55077;BME280;40971;44.702;11.030;2023-09-19T20:05:17;101297.50;;;23.92;57.61
55077;BME280;40971;44.702;11.030;2023-09-19T20:15:21;101306.97;;;23.71;60.03
55077;BME280;40971;44.702;11.030;2023-09-19T20:25:23;101310.91;;;23.34;61.56
55077;BME280;40971;44.702;11.030;2023-09-19T20:35:26;101318.00;;;23.05;60.79
55077;BME280;40971;44.702;11.030;2023-09-19T20:45:29;101332.34;;;22.70;55.05
55077;BME280;40971;44.702;11.030;2023-09-19T20:55:32;101308.00;;;22.05;56.50
55077;BME280;40971;44.702;11.030;2023-09-19T21:05:39;101330.22;;;22.24;59.77
55077;BME280;40971;44.702;11.030;2023-09-19T21:15:42;101346.53;;;22.04;58.80
55077;BME280;40971;44.702;11.030;2023-09-19T21:25:53;101350.53;;;21.95;57.53
55077;BME280;40971;44.702;11.030;2023-09-19T21:35:57;101357.66;;;21.83;61.87
55077;BME280;40971;44.702;11.030;2023-09-19T21:45:59;101330.91;;;21.02;69.08
55077;BME280;40971;44.702;11.030;2023-09-19T21:56:03;101346.06;;;20.46;72.17
55077;BME280;40971;44.702;11.030;2023-09-19T22:06:09;101348.38;;;20.29;72.98
55077;BME280;40971;44.702;11.030;2023-09-19T22:16:16;101339.78;;;20.14;74.78
55077;BME280;40971;44.702;11.030;2023-09-19T22:26:19;101362.88;;;19.49;79.59
55077;BME280;40971;44.702;11.030;2023-09-19T22:36:24;101382.16;;;19.45;84.28
55077;BME280;40971;44.702;11.030;2023-09-19T22:46:40;101355.47;;;19.32;85.99
55077;BME280;40971;44.702;11.030;2023-09-19T22:56:44;101367.34;;;19.09;87.18
55077;BME280;40971;44.702;11.030;2023-09-19T23:06:54;101368.50;;;18.87;86.06
55077;BME280;40971;44.702;11.030;2023-09-19T23:17:00;101392.44;;;18.74;88.12
55077;BME280;40971;44.702;11.030;2023-09-19T23:27:07;101403.38;;;18.99;87.63
55077;BME280;40971;44.702;11.030;2023-09-19T23:37:16;101420.81;;;18.95;86.12
55077;BME280;40971;44.702;11.030;2023-09-19T23:47:21;101420.34;;;18.78;87.13
55077;BME280;40971;44.702;11.030;2023-09-19T23:57:23;101409.81;;;18.64;88.20
